sensor_id;sensor_type;location;lat;lon;timestamp;pressure;altitude;pressure_sealevel;temperature
66403;BMP180;53212;52.112;5.144;2023-08-20T00:00:33;102050.80;;;19.00
66403;BMP180;53212;52.112;5.144;2023-08-20T00:03:06;102055.60;;;19.00
66403;BMP180;53212;52.112;5.144;2023-08-20T00:05:36;102059.20;;;19.10
66403;BMP180;53212;52.112;5.144;2023-08-20T00:08:01;102055.20;;;19.10
66403;BMP180;53212;52.112;5.144;2023-08-20T00:10:27;102056.60;;;19.20
66403;BMP180;53212;52.112;5.144;2023-08-20T00:12:53;102060.00;;;19.24
66403;BMP180;53212;52.112;5.144;2023-08-20T00:15:18;102059.00;;;19.30
66403;BMP180;53212;52.112;5.144;2023-08-20T00:17:45;102061.20;;;19.30
66403;BMP180;53212;52.112;5.144;2023-08-20T00:20:14;102065.80;;;19.30
66403;BMP180;53212;52.112;5.144;2023-08-20T00:22:41;102058.40;;;19.30
66403;BMP180;53212;52.112;5.144;2023-08-20T00:25:12;102064.40;;;19.30
66403;BMP180;53212;52.112;5.144;2023-08-20T00:27:42;102064.20;;;19.20
66403;BMP180;53212;52.112;5.144;2023-08-20T00:30:09;102071.80;;;19.20
66403;BMP180;53212;52.112;5.144;2023-08-20T00:32:35;102085.60;;;19.20
66403;BMP180;53212;52.112;5.144;2023-08-20T00:35:01;102086.40;;;19.20
66403;BMP180;53212;52.112;5.144;2023-08-20T00:37:28;102084.40;;;19.20
66403;BMP180;53212;52.112;5.144;2023-08-20T00:39:53;102087.80;;;19.20
66403;BMP180;53212;52.112;5.144;2023-08-20T00:42:19;102085.80;;;19.20
66403;BMP180;53212;52.112;5.144;2023-08-20T00:44:44;102089.00;;;19.20
66403;BMP180;53212;52.112;5.144;2023-08-20T00:47:10;102088.40;;;19.16
66403;BMP180;53212;52.112;5.144;2023-08-20T00:49:36;102090.80;;;19.20
66403;BMP180;53212;52.112;5.144;2023-08-20T00:52:03;102089.20;;;19.20
66403;BMP180;53212;52.112;5.144;2023-08-20T00:54:31;102090.20;;;19.28
66403;BMP180;53212;52.112;5.144;2023-08-20T00:56:59;102084.80;;;19.30
66403;BMP180;53212;52.112;5.144;2023-08-20T00:59:24;102088.80;;;19.20
66403;BMP180;53212;52.112;5.144;2023-08-20T01:01:50;102092.40;;;19.20
66403;BMP180;53212;52.112;5.144;2023-08-20T01:04:16;102095.00;;;19.20
66403;BMP180;53212;52.112;5.144;2023-08-20T01:09:37;102108.20;;;19.10
66403;BMP180;53212;52.112;5.144;2023-08-20T01:12:06;102115.00;;;19.20
66403;BMP180;53212;52.112;5.144;2023-08-20T01:14:31;102123.20;;;19.20
66403;BMP180;53212;52.112;5.144;2023-08-20T01:16:57;102122.40;;;19.20
66403;BMP180;53212;52.112;5.144;2023-08-20T01:19:23;102127.60;;;19.24
66403;BMP180;53212;52.112;5.144;2023-08-20T01:21:58;102128.00;;;19.30
66403;BMP180;53212;52.112;5.144;2023-08-20T01:30:15;102113.60;;;19.10
66403;BMP180;53212;52.112;5.144;2023-08-20T01:32:41;102120.40;;;19.00
66403;BMP180;53212;52.112;5.144;2023-08-20T01:35:11;102115.80;;;19.00
66403;BMP180;53212;52.112;5.144;2023-08-20T01:37:39;102120.20;;;19.00
66403;BMP180;53212;52.112;5.144;2023-08-20T01:40:07;102122.80;;;19.00
66403;BMP180;53212;52.112;5.144;2023-08-20T01:42:33;102130.40;;;19.00
66403;BMP180;53212;52.112;5.144;2023-08-20T01:44:59;102134.40;;;19.00
66403;BMP180;53212;52.112;5.144;2023-08-20T01:47:24;102136.00;;;19.00
66403;BMP180;53212;52.112;5.144;2023-08-20T01:49:49;102133.80;;;18.92
66403;BMP180;53212;52.112;5.144;2023-08-20T01:52:15;102137.20;;;18.90
66403;BMP180;53212;52.112;5.144;2023-08-20T01:54:40;102140.00;;;18.90
66403;BMP180;53212;52.112;5.144;2023-08-20T01:57:06;102141.00;;;18.82
66403;BMP180;53212;52.112;5.144;2023-08-20T01:59:31;102141.60;;;18.80
66403;BMP180;53212;52.112;5.144;2023-08-20T02:01:57;102135.20;;;18.80
66403;BMP180;53212;52.112;5.144;2023-08-20T02:04:22;102134.40;;;18.80
66403;BMP180;53212;52.112;5.144;2023-08-20T02:06:47;102136.80;;;18.80
66403;BMP180;53212;52.112;5.144;2023-08-20T02:09:13;102135.00;;;18.80
66403;BMP180;53212;52.112;5.144;2023-08-20T02:11:39;102134.80;;;18.70
66403;BMP180;53212;52.112;5.144;2023-08-20T02:14:04;102131.80;;;18.70
66403;BMP180;53212;52.112;5.144;2023-08-20T02:16:30;102136.40;;;18.70
66403;BMP180;53212;52.112;5.144;2023-08-20T02:18:55;102133.20;;;18.62
66403;BMP180;53212;52.112;5.144;2023-08-20T02:21:21;102129.00;;;18.60
66403;BMP180;53212;52.112;5.144;2023-08-20T02:23:46;102123.20;;;18.60
66403;BMP180;53212;52.112;5.144;2023-08-20T02:26:12;102123.40;;;18.54
66403;BMP180;53212;52.112;5.144;2023-08-20T02:28:37;102111.40;;;18.50
66403;BMP180;53212;52.112;5.144;2023-08-20T02:31:04;102112.20;;;18.40
66403;BMP180;53212;52.112;5.144;2023-08-20T02:33:30;102113.60;;;18.38
66403;BMP180;53212;52.112;5.144;2023-08-20T02:36:00;102110.20;;;18.30
66403;BMP180;53212;52.112;5.144;2023-08-20T02:38:26;102108.40;;;18.20
66403;BMP180;53212;52.112;5.144;2023-08-20T02:40:52;102110.20;;;18.20
66403;BMP180;53212;52.112;5.144;2023-08-20T02:43:17;102108.60;;;18.16
66403;BMP180;53212;52.112;5.144;2023-08-20T02:45:43;102112.20;;;18.10
66403;BMP180;53212;52.112;5.144;2023-08-20T02:48:09;102110.00;;;18.00
66403;BMP180;53212;52.112;5.144;2023-08-20T02:50:35;102110.60;;;18.00
66403;BMP180;53212;52.112;5.144;2023-08-20T02:53:01;102104.20;;;17.90
66403;BMP180;53212;52.112;5.144;2023-08-20T02:55:26;102109.40;;;17.80
66403;BMP180;53212;52.112;5.144;2023-08-20T02:57:52;102120.80;;;17.72
66403;BMP180;53212;52.112;5.144;2023-08-20T03:00:17;102115.40;;;17.70
66403;BMP180;53212;52.112;5.144;2023-08-20T03:02:43;102107.00;;;17.70
66403;BMP180;53212;52.112;5.144;2023-08-20T03:05:10;102116.20;;;17.60
66403;BMP180;53212;52.112;5.144;2023-08-20T03:07:36;102113.00;;;17.60
66403;BMP180;53212;52.112;5.144;2023-08-20T03:10:01;102116.40;;;17.60
66403;BMP180;53212;52.112;5.144;2023-08-20T03:12:28;102112.20;;;17.60
66403;BMP180;53212;52.112;5.144;2023-08-20T03:14:55;102113.00;;;17.50
66403;BMP180;53212;52.112;5.144;2023-08-20T03:17:20;102113.40;;;17.50
66403;BMP180;53212;52.112;5.144;2023-08-20T03:20:00;102118.20;;;17.40
66403;BMP180;53212;52.112;5.144;2023-08-20T03:22:26;102118.80;;;17.42
66403;BMP180;53212;52.112;5.144;2023-08-20T03:24:53;102123.20;;;17.50
66403;BMP180;53212;52.112;5.144;2023-08-20T03:27:19;102125.60;;;17.48
66403;BMP180;53212;52.112;5.144;2023-08-20T03:29:45;102123.40;;;17.50
66403;BMP180;53212;52.112;5.144;2023-08-20T03:32:11;102126.80;;;17.60
66403;BMP180;53212;52.112;5.144;2023-08-20T03:34:37;102133.60;;;17.60
66403;BMP180;53212;52.112;5.144;2023-08-20T03:37:03;102132.80;;;17.70
66403;BMP180;53212;52.112;5.144;2023-08-20T03:39:30;102137.80;;;17.80
66403;BMP180;53212;52.112;5.144;2023-08-20T03:41:58;102138.20;;;17.80
66403;BMP180;53212;52.112;5.144;2023-08-20T03:44:23;102142.00;;;17.80
66403;BMP180;53212;52.112;5.144;2023-08-20T03:46:49;102145.60;;;17.80
66403;BMP180;53212;52.112;5.144;2023-08-20T03:49:15;102143.60;;;17.80
66403;BMP180;53212;52.112;5.144;2023-08-20T03:51:40;102143.20;;;17.82
66403;BMP180;53212;52.112;5.144;2023-08-20T03:54:08;102146.60;;;17.80
66403;BMP180;53212;52.112;5.144;2023-08-20T03:56:34;102151.20;;;17.80
66403;BMP180;53212;52.112;5.144;2023-08-20T03:58:59;102152.00;;;17.80
66403;BMP180;53212;52.112;5.144;2023-08-20T04:01:24;102150.80;;;17.80
66403;BMP180;53212;52.112;5.144;2023-08-20T04:03:50;102153.20;;;17.70
66403;BMP180;53212;52.112;5.144;2023-08-20T04:06:15;102153.00;;;17.80
66403;BMP180;53212;52.112;5.144;2023-08-20T04:08:41;102157.60;;;17.70
66403;BMP180;53212;52.112;5.144;2023-08-20T04:11:07;102161.40;;;17.80
66403;BMP180;53212;52.112;5.144;2023-08-20T04:13:32;102157.60;;;17.80
66403;BMP180;53212;52.112;5.144;2023-08-20T04:15:58;102161.00;;;17.80
66403;BMP180;53212;52.112;5.144;2023-08-20T04:18:23;102154.80;;;17.80
66403;BMP180;53212;52.112;5.144;2023-08-20T04:20:53;102162.80;;;17.80
66403;BMP180;53212;52.112;5.144;2023-08-20T04:23:23;102159.20;;;17.80
66403;BMP180;53212;52.112;5.144;2023-08-20T04:25:48;102165.60;;;17.80
66403;BMP180;53212;52.112;5.144;2023-08-20T04:28:14;102166.60;;;17.70
66403;BMP180;53212;52.112;5.144;2023-08-20T04:30:39;102169.00;;;17.60
66403;BMP180;53212;52.112;5.144;2023-08-20T04:33:05;102167.20;;;17.50
66403;BMP180;53212;52.112;5.144;2023-08-20T04:35:30;102170.40;;;17.44
66403;BMP180;53212;52.112;5.144;2023-08-20T04:37:56;102173.80;;;17.50
66403;BMP180;53212;52.112;5.144;2023-08-20T04:40:22;102172.80;;;17.50
66403;BMP180;53212;52.112;5.144;2023-08-20T04:42:48;102174.40;;;17.58
66403;BMP180;53212;52.112;5.144;2023-08-20T04:45:17;102179.80;;;17.50
66403;BMP180;53212;52.112;5.144;2023-08-20T04:47:45;102182.80;;;17.50
66403;BMP180;53212;52.112;5.144;2023-08-20T04:50:11;102186.60;;;17.50
66403;BMP180;53212;52.112;5.144;2023-08-20T04:52:36;102192.20;;;17.50
66403;BMP180;53212;52.112;5.144;2023-08-20T04:55:02;102187.80;;;17.50
66403;BMP180;53212;52.112;5.144;2023-08-20T04:57:28;102191.20;;;17.56
66403;BMP180;53212;52.112;5.144;2023-08-20T04:59:53;102190.20;;;17.50
66403;BMP180;53212;52.112;5.144;2023-08-20T05:02:19;102191.20;;;17.50
66403;BMP180;53212;52.112;5.144;2023-08-20T05:04:45;102189.60;;;17.50
66403;BMP180;53212;52.112;5.144;2023-08-20T05:07:10;102190.60;;;17.50
66403;BMP180;53212;52.112;5.144;2023-08-20T05:09:36;102189.80;;;17.50
66403;BMP180;53212;52.112;5.144;2023-08-20T05:12:02;102190.40;;;17.44
66403;BMP180;53212;52.112;5.144;2023-08-20T05:14:29;102192.80;;;17.40
66403;BMP180;53212;52.112;5.144;2023-08-20T05:16:55;102192.80;;;17.44
66403;BMP180;53212;52.112;5.144;2023-08-20T05:19:21;102199.40;;;17.50
66403;BMP180;53212;52.112;5.144;2023-08-20T05:21:46;102192.80;;;17.50
66403;BMP180;53212;52.112;5.144;2023-08-20T05:24:12;102194.20;;;17.50
66403;BMP180;53212;52.112;5.144;2023-08-20T05:26:37;102190.60;;;17.60
66403;BMP180;53212;52.112;5.144;2023-08-20T05:29:03;102196.80;;;17.60
66403;BMP180;53212;52.112;5.144;2023-08-20T05:31:28;102193.20;;;17.70
66403;BMP180;53212;52.112;5.144;2023-08-20T05:33:54;102199.40;;;17.70
66403;BMP180;53212;52.112;5.144;2023-08-20T05:36:19;102200.20;;;17.72
66403;BMP180;53212;52.112;5.144;2023-08-20T05:38:45;102200.60;;;17.80
66403;BMP180;53212;52.112;5.144;2023-08-20T05:41:10;102199.00;;;17.90
66403;BMP180;53212;52.112;5.144;2023-08-20T05:43:36;102199.20;;;17.90
66403;BMP180;53212;52.112;5.144;2023-08-20T05:46:02;102198.60;;;18.00
66403;BMP180;53212;52.112;5.144;2023-08-20T05:48:28;102201.20;;;18.08
66403;BMP180;53212;52.112;5.144;2023-08-20T05:50:54;102202.40;;;18.10
66403;BMP180;53212;52.112;5.144;2023-08-20T05:53:20;102201.00;;;18.26
66403;BMP180;53212;52.112;5.144;2023-08-20T05:55:45;102195.80;;;18.40
66403;BMP180;53212;52.112;5.144;2023-08-20T05:58:11;102197.00;;;18.52
66403;BMP180;53212;52.112;5.144;2023-08-20T06:00:36;102193.60;;;18.70
66403;BMP180;53212;52.112;5.144;2023-08-20T06:03:02;102191.00;;;18.80
66403;BMP180;53212;52.112;5.144;2023-08-20T06:05:28;102190.60;;;19.00
66403;BMP180;53212;52.112;5.144;2023-08-20T06:07:53;102191.20;;;19.24
66403;BMP180;53212;52.112;5.144;2023-08-20T06:10:18;102187.20;;;19.56
66403;BMP180;53212;52.112;5.144;2023-08-20T06:12:44;102187.80;;;19.88
66403;BMP180;53212;52.112;5.144;2023-08-20T06:15:09;102185.80;;;20.20
66403;BMP180;53212;52.112;5.144;2023-08-20T06:17:35;102190.60;;;20.40
66403;BMP180;53212;52.112;5.144;2023-08-20T06:20:00;102194.40;;;20.56
66403;BMP180;53212;52.112;5.144;2023-08-20T06:22:26;102195.60;;;20.80
66403;BMP180;53212;52.112;5.144;2023-08-20T06:24:52;102195.40;;;20.90
66403;BMP180;53212;52.112;5.144;2023-08-20T06:27:17;102195.40;;;20.80
66403;BMP180;53212;52.112;5.144;2023-08-20T06:29:42;102192.60;;;20.90
66403;BMP180;53212;52.112;5.144;2023-08-20T06:32:08;102193.80;;;20.80
66403;BMP180;53212;52.112;5.144;2023-08-20T06:34:34;102195.20;;;20.60
66403;BMP180;53212;52.112;5.144;2023-08-20T06:37:01;102198.20;;;20.50
66403;BMP180;53212;52.112;5.144;2023-08-20T06:39:27;102200.40;;;20.80
66403;BMP180;53212;52.112;5.144;2023-08-20T06:41:52;102202.40;;;20.90
66403;BMP180;53212;52.112;5.144;2023-08-20T06:44:18;102197.00;;;20.90
66403;BMP180;53212;52.112;5.144;2023-08-20T06:46:43;102194.00;;;21.18
66403;BMP180;53212;52.112;5.144;2023-08-20T06:49:09;102194.20;;;21.34
66403;BMP180;53212;52.112;5.144;2023-08-20T06:51:34;102194.60;;;21.30
66403;BMP180;53212;52.112;5.144;2023-08-20T06:54:00;102200.20;;;21.20
66403;BMP180;53212;52.112;5.144;2023-08-20T06:56:25;102205.60;;;21.10
66403;BMP180;53212;52.112;5.144;2023-08-20T06:58:51;102207.80;;;20.90
66403;BMP180;53212;52.112;5.144;2023-08-20T07:01:16;102203.80;;;20.90
66403;BMP180;53212;52.112;5.144;2023-08-20T07:03:44;102199.00;;;20.80
66403;BMP180;53212;52.112;5.144;2023-08-20T07:06:10;102198.60;;;20.70
66403;BMP180;53212;52.112;5.144;2023-08-20T07:08:37;102198.40;;;20.70
66403;BMP180;53212;52.112;5.144;2023-08-20T07:11:05;102204.60;;;20.50
66403;BMP180;53212;52.112;5.144;2023-08-20T07:13:30;102201.40;;;20.40
66403;BMP180;53212;52.112;5.144;2023-08-20T07:15:56;102209.20;;;20.30
66403;BMP180;53212;52.112;5.144;2023-08-20T07:18:21;102213.00;;;20.20
66403;BMP180;53212;52.112;5.144;2023-08-20T07:20:47;102218.20;;;20.14
66403;BMP180;53212;52.112;5.144;2023-08-20T07:23:12;102218.40;;;20.10
66403;BMP180;53212;52.112;5.144;2023-08-20T07:25:39;102219.60;;;20.10
66403;BMP180;53212;52.112;5.144;2023-08-20T07:28:08;102223.60;;;20.10
66403;BMP180;53212;52.112;5.144;2023-08-20T07:30:35;102222.60;;;20.10
66403;BMP180;53212;52.112;5.144;2023-08-20T07:33:02;102223.40;;;20.10
66403;BMP180;53212;52.112;5.144;2023-08-20T07:35:28;102224.80;;;20.02
66403;BMP180;53212;52.112;5.144;2023-08-20T07:37:54;102228.40;;;20.02
66403;BMP180;53212;52.112;5.144;2023-08-20T07:40:20;102236.60;;;20.10
66403;BMP180;53212;52.112;5.144;2023-08-20T07:42:46;102239.20;;;20.20
66403;BMP180;53212;52.112;5.144;2023-08-20T07:45:11;102235.80;;;20.20
66403;BMP180;53212;52.112;5.144;2023-08-20T07:47:37;102237.80;;;20.30
66403;BMP180;53212;52.112;5.144;2023-08-20T07:50:04;102237.80;;;20.36
66403;BMP180;53212;52.112;5.144;2023-08-20T07:52:31;102243.80;;;20.40
66403;BMP180;53212;52.112;5.144;2023-08-20T07:54:57;102243.20;;;20.48
66403;BMP180;53212;52.112;5.144;2023-08-20T07:57:22;102248.40;;;20.56
66403;BMP180;53212;52.112;5.144;2023-08-20T07:59:52;102246.80;;;20.60
66403;BMP180;53212;52.112;5.144;2023-08-20T08:02:18;102247.80;;;20.68
66403;BMP180;53212;52.112;5.144;2023-08-20T08:04:44;102247.80;;;20.80
66403;BMP180;53212;52.112;5.144;2023-08-20T08:07:10;102250.20;;;20.88
66403;BMP180;53212;52.112;5.144;2023-08-20T08:09:36;102251.00;;;21.00
66403;BMP180;53212;52.112;5.144;2023-08-20T08:12:03;102253.40;;;21.00
66403;BMP180;53212;52.112;5.144;2023-08-20T08:14:28;102256.00;;;21.00
66403;BMP180;53212;52.112;5.144;2023-08-20T08:16:54;102262.60;;;21.00
66403;BMP180;53212;52.112;5.144;2023-08-20T08:19:20;102258.60;;;21.00
66403;BMP180;53212;52.112;5.144;2023-08-20T08:21:46;102261.00;;;21.00
66403;BMP180;53212;52.112;5.144;2023-08-20T08:24:13;102262.20;;;21.10
66403;BMP180;53212;52.112;5.144;2023-08-20T08:26:39;102264.60;;;21.20
66403;BMP180;53212;52.112;5.144;2023-08-20T08:29:06;102265.40;;;21.22
66403;BMP180;53212;52.112;5.144;2023-08-20T08:31:33;102262.80;;;21.30
66403;BMP180;53212;52.112;5.144;2023-08-20T08:33:59;102275.80;;;21.30
66403;BMP180;53212;52.112;5.144;2023-08-20T08:36:25;102276.60;;;21.40
66403;BMP180;53212;52.112;5.144;2023-08-20T08:38:53;102275.20;;;21.40
66403;BMP180;53212;52.112;5.144;2023-08-20T08:41:22;102272.20;;;21.50
66403;BMP180;53212;52.112;5.144;2023-08-20T08:43:51;102270.20;;;21.62
66403;BMP180;53212;52.112;5.144;2023-08-20T08:46:17;102272.20;;;21.80
66403;BMP180;53212;52.112;5.144;2023-08-20T08:48:45;102269.80;;;21.80
66403;BMP180;53212;52.112;5.144;2023-08-20T08:51:14;102270.20;;;21.90
66403;BMP180;53212;52.112;5.144;2023-08-20T08:53:41;102269.20;;;22.00
66403;BMP180;53212;52.112;5.144;2023-08-20T08:56:07;102268.40;;;22.10
66403;BMP180;53212;52.112;5.144;2023-08-20T08:58:33;102275.80;;;22.20
66403;BMP180;53212;52.112;5.144;2023-08-20T09:00:59;102273.40;;;22.20
66403;BMP180;53212;52.112;5.144;2023-08-20T09:03:25;102270.00;;;22.30
66403;BMP180;53212;52.112;5.144;2023-08-20T09:05:57;102269.40;;;22.30
66403;BMP180;53212;52.112;5.144;2023-08-20T09:08:31;102271.60;;;22.40
66403;BMP180;53212;52.112;5.144;2023-08-20T09:10:59;102269.60;;;22.40
66403;BMP180;53212;52.112;5.144;2023-08-20T09:13:33;102265.20;;;22.50
66403;BMP180;53212;52.112;5.144;2023-08-20T09:15:59;102268.00;;;22.40
66403;BMP180;53212;52.112;5.144;2023-08-20T09:18:25;102268.20;;;22.40
66403;BMP180;53212;52.112;5.144;2023-08-20T09:20:50;102274.40;;;22.40
66403;BMP180;53212;52.112;5.144;2023-08-20T09:23:16;102281.00;;;22.50
66403;BMP180;53212;52.112;5.144;2023-08-20T09:25:43;102276.40;;;22.50
66403;BMP180;53212;52.112;5.144;2023-08-20T09:28:08;102281.40;;;22.54
66403;BMP180;53212;52.112;5.144;2023-08-20T09:30:34;102278.20;;;22.60
66403;BMP180;53212;52.112;5.144;2023-08-20T09:33:10;102280.40;;;22.66
66403;BMP180;53212;52.112;5.144;2023-08-20T09:35:36;102281.00;;;22.80
66403;BMP180;53212;52.112;5.144;2023-08-20T09:38:03;102277.60;;;22.90
66403;BMP180;53212;52.112;5.144;2023-08-20T09:40:30;102280.00;;;22.90
66403;BMP180;53212;52.112;5.144;2023-08-20T09:42:56;102286.80;;;23.00
66403;BMP180;53212;52.112;5.144;2023-08-20T09:45:24;102282.40;;;23.00
66403;BMP180;53212;52.112;5.144;2023-08-20T09:47:55;102280.40;;;23.12
66403;BMP180;53212;52.112;5.144;2023-08-20T09:50:22;102284.20;;;23.30
66403;BMP180;53212;52.112;5.144;2023-08-20T09:53:03;102289.20;;;23.40
66403;BMP180;53212;52.112;5.144;2023-08-20T09:55:33;102279.40;;;23.40
66403;BMP180;53212;52.112;5.144;2023-08-20T09:58:01;102284.60;;;23.50
66403;BMP180;53212;52.112;5.144;2023-08-20T10:00:27;102283.40;;;23.60
66403;BMP180;53212;52.112;5.144;2023-08-20T10:02:53;102283.60;;;23.60
66403;BMP180;53212;52.112;5.144;2023-08-20T10:05:19;102281.20;;;23.70
66403;BMP180;53212;52.112;5.144;2023-08-20T10:07:46;102286.40;;;23.90
66403;BMP180;53212;52.112;5.144;2023-08-20T10:10:12;102291.80;;;23.90
66403;BMP180;53212;52.112;5.144;2023-08-20T10:12:39;102296.80;;;23.98
66403;BMP180;53212;52.112;5.144;2023-08-20T10:15:08;102294.60;;;24.00
66403;BMP180;53212;52.112;5.144;2023-08-20T10:17:37;102295.40;;;24.10
66403;BMP180;53212;52.112;5.144;2023-08-20T10:20:04;102298.20;;;24.20
66403;BMP180;53212;52.112;5.144;2023-08-20T10:22:38;102297.20;;;24.30
66403;BMP180;53212;52.112;5.144;2023-08-20T10:25:08;102293.00;;;24.34
66403;BMP180;53212;52.112;5.144;2023-08-20T10:27:40;102283.80;;;24.40
66403;BMP180;53212;52.112;5.144;2023-08-20T10:30:11;102284.40;;;24.60
66403;BMP180;53212;52.112;5.144;2023-08-20T10:32:48;102287.00;;;24.60
66403;BMP180;53212;52.112;5.144;2023-08-20T10:35:27;102281.20;;;24.62
66403;BMP180;53212;52.112;5.144;2023-08-20T10:38:35;102280.60;;;24.70
66403;BMP180;53212;52.112;5.144;2023-08-20T10:41:01;102288.20;;;24.80
66403;BMP180;53212;52.112;5.144;2023-08-20T10:46:17;102282.60;;;24.84
66403;BMP180;53212;52.112;5.144;2023-08-20T10:48:50;102280.40;;;24.90
66403;BMP180;53212;52.112;5.144;2023-08-20T10:51:19;102279.80;;;25.00
66403;BMP180;53212;52.112;5.144;2023-08-20T10:54:08;102281.20;;;25.00
66403;BMP180;53212;52.112;5.144;2023-08-20T10:59:27;102283.80;;;25.18
66403;BMP180;53212;52.112;5.144;2023-08-20T11:01:55;102283.00;;;25.22
66403;BMP180;53212;52.112;5.144;2023-08-20T11:04:27;102283.40;;;25.30
66403;BMP180;53212;52.112;5.144;2023-08-20T11:06:55;102291.20;;;25.48
66403;BMP180;53212;52.112;5.144;2023-08-20T11:09:27;102295.00;;;25.60
66403;BMP180;53212;52.112;5.144;2023-08-20T11:11:54;102291.40;;;25.70
66403;BMP180;53212;52.112;5.144;2023-08-20T11:14:20;102289.80;;;25.80
66403;BMP180;53212;52.112;5.144;2023-08-20T11:16:47;102291.60;;;26.10
66403;BMP180;53212;52.112;5.144;2023-08-20T11:19:15;102285.60;;;26.46
66403;BMP180;53212;52.112;5.144;2023-08-20T11:21:44;102293.00;;;26.68
66403;BMP180;53212;52.112;5.144;2023-08-20T11:24:10;102289.00;;;26.90
66403;BMP180;53212;52.112;5.144;2023-08-20T11:26:39;102290.40;;;27.00
66403;BMP180;53212;52.112;5.144;2023-08-20T11:29:10;102294.20;;;27.10
66403;BMP180;53212;52.112;5.144;2023-08-20T11:31:36;102285.80;;;26.90
66403;BMP180;53212;52.112;5.144;2023-08-20T11:34:03;102288.00;;;26.90
66403;BMP180;53212;52.112;5.144;2023-08-20T11:36:29;102285.60;;;26.80
66403;BMP180;53212;52.112;5.144;2023-08-20T11:38:55;102277.00;;;26.60
66403;BMP180;53212;52.112;5.144;2023-08-20T11:41:21;102280.40;;;26.60
66403;BMP180;53212;52.112;5.144;2023-08-20T11:43:48;102282.20;;;26.70
66403;BMP180;53212;52.112;5.144;2023-08-20T11:46:14;102280.80;;;26.96
66403;BMP180;53212;52.112;5.144;2023-08-20T11:49:03;102281.40;;;27.00
66403;BMP180;53212;52.112;5.144;2023-08-20T11:51:41;102276.20;;;27.20
66403;BMP180;53212;52.112;5.144;2023-08-20T11:54:13;102272.40;;;27.32
66403;BMP180;53212;52.112;5.144;2023-08-20T11:56:49;102275.00;;;27.52
66403;BMP180;53212;52.112;5.144;2023-08-20T11:59:17;102270.40;;;27.80
66403;BMP180;53212;52.112;5.144;2023-08-20T12:01:50;102270.20;;;27.96
66403;BMP180;53212;52.112;5.144;2023-08-20T12:04:15;102259.80;;;27.90
66403;BMP180;53212;52.112;5.144;2023-08-20T12:06:41;102265.00;;;28.08
66403;BMP180;53212;52.112;5.144;2023-08-20T12:09:23;102262.00;;;28.26
66403;BMP180;53212;52.112;5.144;2023-08-20T12:11:51;102271.40;;;28.50
66403;BMP180;53212;52.112;5.144;2023-08-20T12:14:19;102274.40;;;28.50
66403;BMP180;53212;52.112;5.144;2023-08-20T12:16:45;102277.00;;;28.60
66403;BMP180;53212;52.112;5.144;2023-08-20T12:19:12;102277.80;;;28.90
66403;BMP180;53212;52.112;5.144;2023-08-20T12:21:37;102281.40;;;28.90
66403;BMP180;53212;52.112;5.144;2023-08-20T12:24:03;102282.40;;;28.90
66403;BMP180;53212;52.112;5.144;2023-08-20T12:26:29;102286.00;;;28.96
66403;BMP180;53212;52.112;5.144;2023-08-20T12:28:55;102288.40;;;29.20
66403;BMP180;53212;52.112;5.144;2023-08-20T12:31:20;102290.00;;;29.40
66403;BMP180;53212;52.112;5.144;2023-08-20T12:33:46;102288.40;;;29.60
66403;BMP180;53212;52.112;5.144;2023-08-20T12:36:11;102296.20;;;29.62
66403;BMP180;53212;52.112;5.144;2023-08-20T12:38:37;102293.80;;;29.28
66403;BMP180;53212;52.112;5.144;2023-08-20T12:41:02;102299.80;;;28.98
66403;BMP180;53212;52.112;5.144;2023-08-20T12:43:29;102297.80;;;28.70
66403;BMP180;53212;52.112;5.144;2023-08-20T12:45:54;102306.40;;;28.80
66403;BMP180;53212;52.112;5.144;2023-08-20T12:48:20;102303.00;;;28.80
66403;BMP180;53212;52.112;5.144;2023-08-20T12:50:45;102305.40;;;28.92
66403;BMP180;53212;52.112;5.144;2023-08-20T12:53:11;102309.80;;;29.00
66403;BMP180;53212;52.112;5.144;2023-08-20T12:55:38;102298.80;;;28.90
66403;BMP180;53212;52.112;5.144;2023-08-20T12:58:04;102301.20;;;28.90
66403;BMP180;53212;52.112;5.144;2023-08-20T13:00:29;102298.40;;;28.76
66403;BMP180;53212;52.112;5.144;2023-08-20T13:02:56;102292.80;;;28.60
66403;BMP180;53212;52.112;5.144;2023-08-20T13:05:26;102293.00;;;28.60
66403;BMP180;53212;52.112;5.144;2023-08-20T13:07:53;102295.20;;;28.60
66403;BMP180;53212;52.112;5.144;2023-08-20T13:10:19;102293.60;;;28.36
66403;BMP180;53212;52.112;5.144;2023-08-20T13:12:50;102296.80;;;28.10
66403;BMP180;53212;52.112;5.144;2023-08-20T13:15:17;102288.80;;;27.90
66403;BMP180;53212;52.112;5.144;2023-08-20T13:17:49;102290.00;;;27.70
66403;BMP180;53212;52.112;5.144;2023-08-20T13:20:15;102289.40;;;27.60
66403;BMP180;53212;52.112;5.144;2023-08-20T13:22:47;102295.60;;;27.50
66403;BMP180;53212;52.112;5.144;2023-08-20T13:25:13;102292.40;;;27.40
66403;BMP180;53212;52.112;5.144;2023-08-20T13:27:40;102291.80;;;27.20
66403;BMP180;53212;52.112;5.144;2023-08-20T13:30:07;102291.00;;;27.10
66403;BMP180;53212;52.112;5.144;2023-08-20T13:32:35;102286.00;;;27.02
66403;BMP180;53212;52.112;5.144;2023-08-20T13:35:01;102287.80;;;27.10
66403;BMP180;53212;52.112;5.144;2023-08-20T13:37:30;102289.20;;;27.10
66403;BMP180;53212;52.112;5.144;2023-08-20T13:39:58;102284.40;;;26.90
66403;BMP180;53212;52.112;5.144;2023-08-20T13:42:24;102285.20;;;26.90
66403;BMP180;53212;52.112;5.144;2023-08-20T13:44:49;102292.60;;;26.80
66403;BMP180;53212;52.112;5.144;2023-08-20T13:47:15;102285.00;;;26.90
66403;BMP180;53212;52.112;5.144;2023-08-20T13:49:40;102289.40;;;27.00
66403;BMP180;53212;52.112;5.144;2023-08-20T13:52:06;102285.20;;;26.90
66403;BMP180;53212;52.112;5.144;2023-08-20T13:54:33;102292.00;;;27.14
66403;BMP180;53212;52.112;5.144;2023-08-20T13:56:58;102290.20;;;27.32
66403;BMP180;53212;52.112;5.144;2023-08-20T13:59:24;102288.00;;;27.50
66403;BMP180;53212;52.112;5.144;2023-08-20T14:01:49;102294.40;;;27.40
66403;BMP180;53212;52.112;5.144;2023-08-20T14:04:15;102298.80;;;27.20
66403;BMP180;53212;52.112;5.144;2023-08-20T14:06:40;102296.20;;;27.10
66403;BMP180;53212;52.112;5.144;2023-08-20T14:09:06;102295.60;;;27.00